LATI/TIA METAR and TAF weather

Enter ICAO airport designator
Station Type Date Time Source
LATI METAR 2019/08/22 07:20 UTC NOAA

LATI 220720Z 00000KT CAVOK 28/19 Q1018 NOSIG


Station Type Date Time Source
LATI Decoded METAR 2019/08/22 07:20 UTC NOAA

Station name not available
Aug 22, 2019 - 03:20 AM EDT / 2019.08.22 0720 UTC
Wind: Calm:0
Visibility: greater than 7 mile(s):0
Temperature: 82 F (28 C)
Dew Point: 66 F (19 C)
Relative Humidity: 58%
Pressure (altimeter): 30.06 in. Hg (1018 hPa)
ob: LATI 220720Z 00000KT CAVOK 28/19 Q1018 NOSIG
cycle: 7

Station Type Date Time Source
LATI TAF 2019/08/22 06:09 UTC NOAA

TAF TAF LATI 220500Z 2206/2306 VRB03KT CAVOK
TEMPO 2211/2217 33010KT

Example: see airport list